Terminal Aerodrome Forecast
Issued by NWS Upton, NY

Home | Current Version | Previous Version | Text Only | Print | Product List | Glossary On
Versions: 1 2 3 4 5 6 7 8 9 10 11 12 13 14 15 16 17 18 19 20 21 22 23 24 25
000
FTUS41 KOKX 022338
TAFBDR
TAF
KBDR 022338Z 0300/0324 20010KT P6SM FEW050
     FM030200 22005KT P6SM SKC
     FM030600 VRB03KT 4SM BR SKC
      TEMPO 0308/0312 2SM BR
     FM031400 16007KT P6SM SCT050=

USA.gov is the U.S. government's official web portal to all federal, state and local government web resources and services.